sensor_id;sensor_type;location;lat;lon;timestamp;pressure;altitude;pressure_sealevel;temperature;humidity
82160;BME280;71734;50.876;7.372;2023-11-21T00:00:29;98442.25;;;7.35;96.69
82160;BME280;71734;50.876;7.372;2023-11-21T00:02:55;98439.50;;;7.38;96.32
82160;BME280;71734;50.876;7.372;2023-11-21T00:05:22;98439.47;;;7.40;96.71
82160;BME280;71734;50.876;7.372;2023-11-21T00:07:49;98450.03;;;7.38;96.48
82160;BME280;71734;50.876;7.372;2023-11-21T00:10:16;98447.41;;;7.38;97.00
82160;BME280;71734;50.876;7.372;2023-11-21T00:12:44;98455.53;;;7.32;96.75
82160;BME280;71734;50.876;7.372;2023-11-21T00:15:13;98448.56;;;7.30;96.67
82160;BME280;71734;50.876;7.372;2023-11-21T00:17:40;98453.69;;;7.34;96.72
82160;BME280;71734;50.876;7.372;2023-11-21T00:20:08;98454.78;;;7.29;97.02
82160;BME280;71734;50.876;7.372;2023-11-21T00:22:37;98457.56;;;7.24;95.59
82160;BME280;71734;50.876;7.372;2023-11-21T00:25:06;98445.28;;;7.23;96.57
82160;BME280;71734;50.876;7.372;2023-11-21T00:27:34;98447.88;;;7.25;96.70
82160;BME280;71734;50.876;7.372;2023-11-21T00:30:02;98456.72;;;7.22;96.81
82160;BME280;71734;50.876;7.372;2023-11-21T00:32:30;98453.19;;;7.23;96.48
82160;BME280;71734;50.876;7.372;2023-11-21T00:34:57;98450.44;;;7.26;96.78
82160;BME280;71734;50.876;7.372;2023-11-21T00:37:24;98460.09;;;7.27;96.29
82160;BME280;71734;50.876;7.372;2023-11-21T00:39:51;98468.91;;;7.26;96.70
82160;BME280;71734;50.876;7.372;2023-11-21T00:42:17;98469.72;;;7.28;96.69
82160;BME280;71734;50.876;7.372;2023-11-21T00:44:43;98473.16;;;7.30;96.40
82160;BME280;71734;50.876;7.372;2023-11-21T00:47:12;98473.09;;;7.33;96.50
82160;BME280;71734;50.876;7.372;2023-11-21T00:49:38;98468.66;;;7.34;96.07
82160;BME280;71734;50.876;7.372;2023-11-21T00:52:05;98471.25;;;7.35;96.48
82160;BME280;71734;50.876;7.372;2023-11-21T00:54:32;98476.47;;;7.37;96.74
82160;BME280;71734;50.876;7.372;2023-11-21T00:56:58;98477.38;;;7.36;96.31
82160;BME280;71734;50.876;7.372;2023-11-21T00:59:25;98469.47;;;7.36;96.81
82160;BME280;71734;50.876;7.372;2023-11-21T01:01:51;98471.28;;;7.34;95.99
82160;BME280;71734;50.876;7.372;2023-11-21T01:04:20;98483.63;;;7.33;96.57
82160;BME280;71734;50.876;7.372;2023-11-21T01:06:47;98481.91;;;7.32;96.27
82160;BME280;71734;50.876;7.372;2023-11-21T01:09:13;98485.31;;;7.34;96.37
82160;BME280;71734;50.876;7.372;2023-11-21T01:11:40;98482.69;;;7.34;96.80
82160;BME280;71734;50.876;7.372;2023-11-21T01:14:06;98491.53;;;7.33;96.72
82160;BME280;71734;50.876;7.372;2023-11-21T01:16:34;98487.19;;;7.31;96.54
82160;BME280;71734;50.876;7.372;2023-11-21T01:19:01;98498.50;;;7.34;96.53
82160;BME280;71734;50.876;7.372;2023-11-21T01:21:36;98508.13;;;7.35;96.45
82160;BME280;71734;50.876;7.372;2023-11-21T01:24:03;98506.41;;;7.34;96.49
82160;BME280;71734;50.876;7.372;2023-11-21T01:26:32;98511.59;;;7.37;96.75
82160;BME280;71734;50.876;7.372;2023-11-21T01:28:58;98505.47;;;7.37;96.31
82160;BME280;71734;50.876;7.372;2023-11-21T01:31:25;98516.00;;;7.37;97.04
82160;BME280;71734;50.876;7.372;2023-11-21T01:33:54;98509.00;;;7.36;96.81
82160;BME280;71734;50.876;7.372;2023-11-21T01:36:21;98509.97;;;7.33;97.48
82160;BME280;71734;50.876;7.372;2023-11-21T01:38:49;98507.41;;;7.30;96.93
82160;BME280;71734;50.876;7.372;2023-11-21T01:41:15;98512.66;;;7.32;97.53
82160;BME280;71734;50.876;7.372;2023-11-21T01:43:41;98511.69;;;7.34;96.69
82160;BME280;71734;50.876;7.372;2023-11-21T01:46:08;98505.50;;;7.35;97.24
82160;BME280;71734;50.876;7.372;2023-11-21T01:48:35;98516.03;;;7.35;97.33
82160;BME280;71734;50.876;7.372;2023-11-21T01:51:03;98508.13;;;7.35;97.20
82160;BME280;71734;50.876;7.372;2023-11-21T01:53:30;98512.69;;;7.30;96.32
82160;BME280;71734;50.876;7.372;2023-11-21T01:55:58;98515.47;;;7.26;96.75
82160;BME280;71734;50.876;7.372;2023-11-21T01:58:25;98515.44;;;7.27;96.64
82160;BME280;71734;50.876;7.372;2023-11-21T02:00:54;98515.47;;;7.26;97.46
82160;BME280;71734;50.876;7.372;2023-11-21T02:03:21;98518.91;;;7.29;97.66
82160;BME280;71734;50.876;7.372;2023-11-21T02:05:47;98514.53;;;7.28;97.46
82160;BME280;71734;50.876;7.372;2023-11-21T02:08:13;98522.44;;;7.28;97.50
82160;BME280;71734;50.876;7.372;2023-11-21T02:10:40;98523.22;;;7.30;97.41
82160;BME280;71734;50.876;7.372;2023-11-21T02:13:08;98527.69;;;7.28;97.43
82160;BME280;71734;50.876;7.372;2023-11-21T02:15:34;98532.09;;;7.28;97.38
82160;BME280;71734;50.876;7.372;2023-11-21T02:18:01;98546.00;;;7.33;97.23
82160;BME280;71734;50.876;7.372;2023-11-21T02:20:28;98544.25;;;7.33;96.81
82160;BME280;71734;50.876;7.372;2023-11-21T02:22:57;98546.09;;;7.30;97.09
82160;BME280;71734;50.876;7.372;2023-11-21T02:25:24;98548.69;;;7.31;97.67
82160;BME280;71734;50.876;7.372;2023-11-21T02:27:51;98544.31;;;7.30;97.96
82160;BME280;71734;50.876;7.372;2023-11-21T02:30:19;98551.31;;;7.31;97.35
82160;BME280;71734;50.876;7.372;2023-11-21T02:32:46;98544.31;;;7.30;97.06
82160;BME280;71734;50.876;7.372;2023-11-21T02:35:13;98550.44;;;7.31;96.67
82160;BME280;71734;50.876;7.372;2023-11-21T02:37:41;98551.34;;;7.30;96.77
82160;BME280;71734;50.876;7.372;2023-11-21T02:40:10;98566.34;;;7.29;96.84
82160;BME280;71734;50.876;7.372;2023-11-21T02:42:37;98562.88;;;7.27;97.35
82160;BME280;71734;50.876;7.372;2023-11-21T02:45:05;98557.56;;;7.29;97.38
82160;BME280;71734;50.876;7.372;2023-11-21T02:47:34;98566.34;;;7.29;97.25
82160;BME280;71734;50.876;7.372;2023-11-21T02:50:01;98560.22;;;7.27;97.65
82160;BME280;71734;50.876;7.372;2023-11-21T02:52:27;98571.59;;;7.29;97.22
82160;BME280;71734;50.876;7.372;2023-11-21T02:54:54;98558.56;;;7.25;96.86
82160;BME280;71734;50.876;7.372;2023-11-21T02:57:21;98557.69;;;7.24;97.60
82160;BME280;71734;50.876;7.372;2023-11-21T02:59:48;98559.44;;;7.25;97.54
82160;BME280;71734;50.876;7.372;2023-11-21T03:02:15;98556.78;;;7.25;97.72
82160;BME280;71734;50.876;7.372;2023-11-21T03:04:42;98557.59;;;7.27;97.82
82160;BME280;71734;50.876;7.372;2023-11-21T03:07:09;98562.97;;;7.24;96.86
82160;BME280;71734;50.876;7.372;2023-11-21T03:09:36;98563.84;;;7.25;97.17
82160;BME280;71734;50.876;7.372;2023-11-21T03:12:02;98563.84;;;7.25;97.36
82160;BME280;71734;50.876;7.372;2023-11-21T03:14:30;98561.25;;;7.23;97.04
82160;BME280;71734;50.876;7.372;2023-11-21T03:16:57;98564.00;;;7.19;97.77
82160;BME280;71734;50.876;7.372;2023-11-21T03:19:23;98565.88;;;7.15;97.42
82160;BME280;71734;50.876;7.372;2023-11-21T03:21:49;98563.38;;;7.11;97.41
82160;BME280;71734;50.876;7.372;2023-11-21T03:24:18;98561.63;;;7.11;97.51
82160;BME280;71734;50.876;7.372;2023-11-21T03:26:45;98562.50;;;7.10;97.21
82160;BME280;71734;50.876;7.372;2023-11-21T03:29:11;98565.16;;;7.10;97.13
82160;BME280;71734;50.876;7.372;2023-11-21T03:31:40;98578.28;;;7.12;97.55
82160;BME280;71734;50.876;7.372;2023-11-21T03:34:09;98590.47;;;7.16;97.33
82160;BME280;71734;50.876;7.372;2023-11-21T03:36:36;98593.06;;;7.17;97.29
82160;BME280;71734;50.876;7.372;2023-11-21T03:39:03;98591.31;;;7.16;97.28
82160;BME280;71734;50.876;7.372;2023-11-21T03:41:30;98591.44;;;7.13;97.15
82160;BME280;71734;50.876;7.372;2023-11-21T03:43:56;98596.59;;;7.16;97.40
82160;BME280;71734;50.876;7.372;2023-11-21T03:46:23;98596.69;;;7.13;97.21
82160;BME280;71734;50.876;7.372;2023-11-21T03:48:51;98608.91;;;7.16;97.69
82160;BME280;71734;50.876;7.372;2023-11-21T03:51:20;98605.50;;;7.12;97.35
82160;BME280;71734;50.876;7.372;2023-11-21T03:53:47;98606.38;;;7.13;97.30
82160;BME280;71734;50.876;7.372;2023-11-21T03:56:34;98605.41;;;7.15;97.64
82160;BME280;71734;50.876;7.372;2023-11-21T03:59:00;98604.59;;;7.13;97.93
82160;BME280;71734;50.876;7.372;2023-11-21T04:01:28;98612.53;;;7.12;97.18
82160;BME280;71734;50.876;7.372;2023-11-21T04:03:56;98609.03;;;7.11;97.59
82160;BME280;71734;50.876;7.372;2023-11-21T04:06:22;98628.31;;;7.13;97.53
82160;BME280;71734;50.876;7.372;2023-11-21T04:08:51;98623.13;;;7.10;97.18
82160;BME280;71734;50.876;7.372;2023-11-21T04:11:17;98624.84;;;7.11;97.27
82160;BME280;71734;50.876;7.372;2023-11-21T04:13:44;98636.25;;;7.12;97.82
82160;BME280;71734;50.876;7.372;2023-11-21T04:16:12;98635.28;;;7.14;97.01
82160;BME280;71734;50.876;7.372;2023-11-21T04:18:38;98645.81;;;7.14;97.18
82160;BME280;71734;50.876;7.372;2023-11-21T04:21:07;98640.66;;;7.11;97.17
82160;BME280;71734;50.876;7.372;2023-11-21T04:23:35;98640.56;;;7.14;97.81
82160;BME280;71734;50.876;7.372;2023-11-21T04:26:02;98645.75;;;7.17;97.47
82160;BME280;71734;50.876;7.372;2023-11-21T04:28:28;98651.03;;;7.17;97.48
82160;BME280;71734;50.876;7.372;2023-11-21T04:30:55;98649.41;;;7.13;97.76
82160;BME280;71734;50.876;7.372;2023-11-21T04:33:22;98663.38;;;7.15;97.59
82160;BME280;71734;50.876;7.372;2023-11-21T04:35:48;98664.28;;;7.14;98.18
82160;BME280;71734;50.876;7.372;2023-11-21T04:38:16;98668.75;;;7.12;97.66
82160;BME280;71734;50.876;7.372;2023-11-21T04:40:44;98671.41;;;7.11;97.30
82160;BME280;71734;50.876;7.372;2023-11-21T04:43:10;98668.00;;;7.07;97.22
82160;BME280;71734;50.876;7.372;2023-11-21T04:45:37;98668.78;;;7.11;97.21
82160;BME280;71734;50.876;7.372;2023-11-21T04:48:05;98674.00;;;7.12;97.79
82160;BME280;71734;50.876;7.372;2023-11-21T04:50:32;98669.63;;;7.11;97.79
82160;BME280;71734;50.876;7.372;2023-11-21T04:52:59;98672.38;;;7.08;97.97
82160;BME280;71734;50.876;7.372;2023-11-21T04:55:27;98676.56;;;7.14;97.59
82160;BME280;71734;50.876;7.372;2023-11-21T04:57:53;98671.28;;;7.15;97.71
82160;BME280;71734;50.876;7.372;2023-11-21T05:00:41;98660.88;;;7.11;97.37
82160;BME280;71734;50.876;7.372;2023-11-21T05:03:07;98668.78;;;7.11;98.16
82160;BME280;71734;50.876;7.372;2023-11-21T05:05:34;98677.53;;;7.11;97.89
82160;BME280;71734;50.876;7.372;2023-11-21T05:08:01;98671.31;;;7.14;97.57
82160;BME280;71734;50.876;7.372;2023-11-21T05:10:31;98675.75;;;7.13;98.10
82160;BME280;71734;50.876;7.372;2023-11-21T05:13:00;98676.63;;;7.12;97.51
82160;BME280;71734;50.876;7.372;2023-11-21T05:15:30;98676.66;;;7.11;97.63
82160;BME280;71734;50.876;7.372;2023-11-21T05:17:56;98677.53;;;7.11;97.97
82160;BME280;71734;50.876;7.372;2023-11-21T05:20:25;98677.53;;;7.11;97.84
82160;BME280;71734;50.876;7.372;2023-11-21T05:22:51;98676.00;;;7.04;97.80
82160;BME280;71734;50.876;7.372;2023-11-21T05:25:17;98681.16;;;7.07;97.17
82160;BME280;71734;50.876;7.372;2023-11-21T05:27:45;98688.16;;;7.08;97.46
82160;BME280;71734;50.876;7.372;2023-11-21T05:30:13;98688.22;;;7.05;97.75
82160;BME280;71734;50.876;7.372;2023-11-21T05:32:40;98686.53;;;7.04;97.62
82160;BME280;71734;50.876;7.372;2023-11-21T05:35:08;98689.19;;;7.03;98.15
82160;BME280;71734;50.876;7.372;2023-11-21T05:37:39;98697.06;;;7.04;97.73
82160;BME280;71734;50.876;7.372;2023-11-21T05:40:07;98697.06;;;7.04;98.01
82160;BME280;71734;50.876;7.372;2023-11-21T05:42:34;98693.66;;;7.00;98.24
82160;BME280;71734;50.876;7.372;2023-11-21T05:45:02;98704.03;;;7.05;97.84
82160;BME280;71734;50.876;7.372;2023-11-21T05:47:36;98701.47;;;7.04;97.46
82160;BME280;71734;50.876;7.372;2023-11-21T05:50:03;98710.25;;;7.04;97.61
82160;BME280;71734;50.876;7.372;2023-11-21T05:52:30;98711.06;;;7.06;98.26
82160;BME280;71734;50.876;7.372;2023-11-21T05:54:57;98708.50;;;7.03;97.49
82160;BME280;71734;50.876;7.372;2023-11-21T05:57:27;98717.19;;;7.07;97.52
82160;BME280;71734;50.876;7.372;2023-11-21T05:59:53;98716.31;;;7.06;97.96
82160;BME280;71734;50.876;7.372;2023-11-21T06:02:22;98712.88;;;7.04;97.76
82160;BME280;71734;50.876;7.372;2023-11-21T06:04:48;98724.28;;;7.05;97.40
82160;BME280;71734;50.876;7.372;2023-11-21T06:07:15;98724.28;;;7.05;98.08
82160;BME280;71734;50.876;7.372;2023-11-21T06:09:41;98722.56;;;7.02;97.86
82160;BME280;71734;50.876;7.372;2023-11-21T06:12:10;98736.50;;;7.07;97.81
82160;BME280;71734;50.876;7.372;2023-11-21T06:14:36;98738.34;;;7.04;98.27
82160;BME280;71734;50.876;7.372;2023-11-21T06:17:03;98739.22;;;7.04;97.78
82160;BME280;71734;50.876;7.372;2023-11-21T06:19:31;98743.56;;;7.05;97.82
82160;BME280;71734;50.876;7.372;2023-11-21T06:21:57;98740.88;;;7.08;97.47
82160;BME280;71734;50.876;7.372;2023-11-21T06:24:24;98750.56;;;7.06;97.92
82160;BME280;71734;50.876;7.372;2023-11-21T06:26:50;98745.28;;;7.06;97.98
82160;BME280;71734;50.876;7.372;2023-11-21T06:29:17;98752.44;;;7.03;97.91
82160;BME280;71734;50.876;7.372;2023-11-21T06:31:43;98760.31;;;7.04;97.82
82160;BME280;71734;50.876;7.372;2023-11-21T06:34:12;98763.84;;;7.03;97.95
82160;BME280;71734;50.876;7.372;2023-11-21T06:36:40;98760.34;;;7.01;98.24
82160;BME280;71734;50.876;7.372;2023-11-21T06:39:06;98767.44;;;6.99;98.25
82160;BME280;71734;50.876;7.372;2023-11-21T06:41:33;98760.44;;;6.98;98.01
82160;BME280;71734;50.876;7.372;2023-11-21T06:44:00;98771.81;;;7.00;98.10
82160;BME280;71734;50.876;7.372;2023-11-21T06:46:27;98778.84;;;6.99;97.97
82160;BME280;71734;50.876;7.372;2023-11-21T06:48:54;98784.00;;;7.04;97.63
82160;BME280;71734;50.876;7.372;2023-11-21T06:51:21;98772.72;;;6.99;97.84
82160;BME280;71734;50.876;7.372;2023-11-21T06:53:48;98779.63;;;7.03;97.91
82160;BME280;71734;50.876;7.372;2023-11-21T06:56:16;98784.00;;;7.04;98.23
82160;BME280;71734;50.876;7.372;2023-11-21T06:58:42;98787.53;;;7.03;98.01
82160;BME280;71734;50.876;7.372;2023-11-21T07:01:10;98798.06;;;7.03;97.11
82160;BME280;71734;50.876;7.372;2023-11-21T07:03:37;98806.00;;;7.01;97.48
82160;BME280;71734;50.876;7.372;2023-11-21T07:06:04;98813.88;;;7.03;97.75
82160;BME280;71734;50.876;7.372;2023-11-21T07:08:30;98827.16;;;7.00;98.29
82160;BME280;71734;50.876;7.372;2023-11-21T07:10:58;98822.69;;;7.02;98.19
82160;BME280;71734;50.876;7.372;2023-11-21T07:13:25;98830.69;;;6.99;97.71
82160;BME280;71734;50.876;7.372;2023-11-21T07:15:51;98835.84;;;7.02;98.27
82160;BME280;71734;50.876;7.372;2023-11-21T07:18:19;98835.84;;;7.02;98.18
82160;BME280;71734;50.876;7.372;2023-11-21T07:20:46;98843.75;;;7.02;97.50
82160;BME280;71734;50.876;7.372;2023-11-21T07:23:12;98848.13;;;7.03;97.82
82160;BME280;71734;50.876;7.372;2023-11-21T07:25:40;98855.19;;;7.01;98.13
82160;BME280;71734;50.876;7.372;2023-11-21T07:28:08;98853.50;;;7.00;98.24
82160;BME280;71734;50.876;7.372;2023-11-21T07:30:35;98857.81;;;7.01;98.23
82160;BME280;71734;50.876;7.372;2023-11-21T07:33:02;98853.50;;;7.00;98.41
82160;BME280;71734;50.876;7.372;2023-11-21T07:35:29;98859.53;;;7.04;98.55
82160;BME280;71734;50.876;7.372;2023-11-21T07:37:55;98862.28;;;6.99;98.70
82160;BME280;71734;50.876;7.372;2023-11-21T07:40:22;98866.59;;;7.01;98.77
82160;BME280;71734;50.876;7.372;2023-11-21T07:42:48;98878.78;;;7.06;98.43
82160;BME280;71734;50.876;7.372;2023-11-21T07:45:16;98883.13;;;7.08;98.10
82160;BME280;71734;50.876;7.372;2023-11-21T07:47:43;98889.31;;;7.07;97.95
82160;BME280;71734;50.876;7.372;2023-11-21T07:50:10;98888.31;;;7.11;98.00
82160;BME280;71734;50.876;7.372;2023-11-21T07:52:36;98890.97;;;7.10;97.92
82160;BME280;71734;50.876;7.372;2023-11-21T07:55:04;98883.13;;;7.08;98.17
82160;BME280;71734;50.876;7.372;2023-11-21T07:57:30;98891.84;;;7.10;98.28
82160;BME280;71734;50.876;7.372;2023-11-21T07:59:57;98898.00;;;7.11;98.68
82160;BME280;71734;50.876;7.372;2023-11-21T08:02:24;98898.72;;;7.17;97.80
82160;BME280;71734;50.876;7.372;2023-11-21T08:04:52;98903.03;;;7.20;97.45
82160;BME280;71734;50.876;7.372;2023-11-21T08:07:22;98894.28;;;7.18;98.10
82160;BME280;71734;50.876;7.372;2023-11-21T08:09:48;98889.06;;;7.16;97.81
82160;BME280;71734;50.876;7.372;2023-11-21T08:12:15;98892.31;;;7.26;97.76
82160;BME280;71734;50.876;7.372;2023-11-21T08:14:42;98901.94;;;7.28;97.58
82160;BME280;71734;50.876;7.372;2023-11-21T08:17:09;98894.91;;;7.29;97.47
82160;BME280;71734;50.876;7.372;2023-11-21T08:19:37;98898.22;;;7.35;97.52
82160;BME280;71734;50.876;7.372;2023-11-21T08:22:04;98890.50;;;7.62;97.14
82160;BME280;71734;50.876;7.372;2023-11-21T08:24:32;98894.22;;;8.16;94.50
82160;BME280;71734;50.876;7.372;2023-11-21T08:27:08;98902.13;;;8.75;91.59
82160;BME280;71734;50.876;7.372;2023-11-21T08:29:34;98903.75;;;9.33;87.84
82160;BME280;71734;50.876;7.372;2023-11-21T08:32:02;98906.56;;;9.53;86.44
82160;BME280;71734;50.876;7.372;2023-11-21T08:34:28;98906.91;;;9.69;86.90
82160;BME280;71734;50.876;7.372;2023-11-21T08:36:56;98916.38;;;9.50;87.49
82160;BME280;71734;50.876;7.372;2023-11-21T08:39:23;98923.97;;;9.08;88.30
82160;BME280;71734;50.876;7.372;2023-11-21T08:41:49;98922.16;;;8.82;90.42
82160;BME280;71734;50.876;7.372;2023-11-21T08:44:16;98929.94;;;8.59;91.99
82160;BME280;71734;50.876;7.372;2023-11-21T08:46:43;98931.19;;;8.47;92.50
82160;BME280;71734;50.876;7.372;2023-11-21T08:49:10;98929.66;;;8.38;92.97
82160;BME280;71734;50.876;7.372;2023-11-21T08:51:37;98940.25;;;8.37;93.28
82160;BME280;71734;50.876;7.372;2023-11-21T08:54:05;98943.25;;;8.23;93.88
82160;BME280;71734;50.876;7.372;2023-11-21T08:56:33;98940.81;;;8.17;94.00
82160;BME280;71734;50.876;7.372;2023-11-21T08:59:00;98944.47;;;8.12;94.65
82160;BME280;71734;50.876;7.372;2023-11-21T09:01:27;98945.53;;;8.06;95.59
82160;BME280;71734;50.876;7.372;2023-11-21T09:03:54;98944.69;;;8.04;96.02
82160;BME280;71734;50.876;7.372;2023-11-21T09:06:20;98952.72;;;8.01;95.70
82160;BME280;71734;50.876;7.372;2023-11-21T09:08:47;98950.94;;;8.02;96.02
82160;BME280;71734;50.876;7.372;2023-11-21T09:11:14;98966.72;;;8.03;95.70
82160;BME280;71734;50.876;7.372;2023-11-21T09:13:42;98965.88;;;8.03;96.05
82160;BME280;71734;50.876;7.372;2023-11-21T09:16:08;98973.78;;;8.03;95.83
82160;BME280;71734;50.876;7.372;2023-11-21T09:18:36;98987.91;;;8.00;96.36
82160;BME280;71734;50.876;7.372;2023-11-21T09:21:03;98986.34;;;7.93;96.31
82160;BME280;71734;50.876;7.372;2023-11-21T09:23:29;98989.03;;;7.91;96.71
82160;BME280;71734;50.876;7.372;2023-11-21T09:25:56;98995.19;;;7.92;96.75
82160;BME280;71734;50.876;7.372;2023-11-21T09:28:26;98997.66;;;7.98;97.19
82160;BME280;71734;50.876;7.372;2023-11-21T09:30:53;99010.91;;;7.95;96.48
82160;BME280;71734;50.876;7.372;2023-11-21T09:33:20;99004.91;;;7.90;97.30
82160;BME280;71734;50.876;7.372;2023-11-21T09:35:47;99006.63;;;7.91;97.02
82160;BME280;71734;50.876;7.372;2023-11-21T09:38:14;99001.44;;;7.88;96.58
82160;BME280;71734;50.876;7.372;2023-11-21T09:40:41;99011.00;;;7.92;97.38
82160;BME280;71734;50.876;7.372;2023-11-21T09:43:09;99002.34;;;7.87;97.10
82160;BME280;71734;50.876;7.372;2023-11-21T09:45:45;99009.25;;;7.91;96.57
82160;BME280;71734;50.876;7.372;2023-11-21T09:48:16;99015.47;;;7.90;97.19
82160;BME280;71734;50.876;7.372;2023-11-21T09:50:43;99024.06;;;7.97;96.88
82160;BME280;71734;50.876;7.372;2023-11-21T09:53:13;99018.78;;;7.98;96.84
82160;BME280;71734;50.876;7.372;2023-11-21T09:55:43;99016.13;;;7.98;96.58
82160;BME280;71734;50.876;7.372;2023-11-21T09:58:09;99021.34;;;8.00;96.89
82160;BME280;71734;50.876;7.372;2023-11-21T10:00:40;99011.78;;;7.95;97.04
82160;BME280;71734;50.876;7.372;2023-11-21T10:03:08;99028.34;;;8.02;96.62
82160;BME280;71734;50.876;7.372;2023-11-21T10:05:35;99022.19;;;8.02;96.81
82160;BME280;71734;50.876;7.372;2023-11-21T10:08:03;99016.03;;;8.01;97.05
82160;BME280;71734;50.876;7.372;2023-11-21T10:10:32;99022.13;;;8.03;97.48
82160;BME280;71734;50.876;7.372;2023-11-21T10:13:02;99018.72;;;8.00;97.47
82160;BME280;71734;50.876;7.372;2023-11-21T10:15:33;99027.38;;;8.05;97.06
82160;BME280;71734;50.876;7.372;2023-11-21T10:18:02;99025.63;;;8.04;96.91
82160;BME280;71734;50.876;7.372;2023-11-21T10:20:31;99036.06;;;8.08;97.27
82160;BME280;71734;50.876;7.372;2023-11-21T10:22:59;99028.25;;;8.05;96.74
82160;BME280;71734;50.876;7.372;2023-11-21T10:25:27;99029.81;;;8.12;97.45
82160;BME280;71734;50.876;7.372;2023-11-21T10:27:57;99036.72;;;8.16;97.12
82160;BME280;71734;50.876;7.372;2023-11-21T10:30:27;99020.91;;;8.16;97.07
82160;BME280;71734;50.876;7.372;2023-11-21T10:32:58;99033.06;;;8.22;97.09
82160;BME280;71734;50.876;7.372;2023-11-21T10:35:39;99031.03;;;8.33;96.89
82160;BME280;71734;50.876;7.372;2023-11-21T10:38:06;99027.19;;;8.45;97.43
82160;BME280;71734;50.876;7.372;2023-11-21T10:40:37;99035.75;;;8.53;97.20
82160;BME280;71734;50.876;7.372;2023-11-21T10:43:06;99026.88;;;8.55;96.59
82160;BME280;71734;50.876;7.372;2023-11-21T10:45:34;99030.44;;;8.54;96.43
82160;BME280;71734;50.876;7.372;2023-11-21T10:48:29;99026.81;;;8.57;95.92
82160;BME280;71734;50.876;7.372;2023-11-21T10:50:57;99034.72;;;8.58;95.88
82160;BME280;71734;50.876;7.372;2023-11-21T10:53:24;99029.34;;;8.61;96.50
82160;BME280;71734;50.876;7.372;2023-11-21T10:56:01;99030.03;;;8.68;95.62
82160;BME280;71734;50.876;7.372;2023-11-21T10:58:28;99032.59;;;8.71;95.29
82160;BME280;71734;50.876;7.372;2023-11-21T11:00:57;99033.34;;;8.74;95.48
82160;BME280;71734;50.876;7.372;2023-11-21T11:03:25;99038.50;;;8.79;95.41
82160;BME280;71734;50.876;7.372;2023-11-21T11:05:52;99041.97;;;8.81;95.50
82160;BME280;71734;50.876;7.372;2023-11-21T11:08:22;99037.63;;;8.78;95.04
82160;BME280;71734;50.876;7.372;2023-11-21T11:10:51;99045.34;;;8.86;94.59
82160;BME280;71734;50.876;7.372;2023-11-21T11:13:18;99049.84;;;8.82;94.81
82160;BME280;71734;50.876;7.372;2023-11-21T11:15:47;99043.78;;;8.79;94.71
82160;BME280;71734;50.876;7.372;2023-11-21T11:18:14;99048.22;;;8.78;95.15
82160;BME280;71734;50.876;7.372;2023-11-21T11:20:43;99047.44;;;8.75;95.07
82160;BME280;71734;50.876;7.372;2023-11-21T11:23:36;99043.03;;;8.75;95.29
82160;BME280;71734;50.876;7.372;2023-11-21T11:26:24;99037.59;;;8.80;95.39
82160;BME280;71734;50.876;7.372;2023-11-21T11:29:01;99044.78;;;8.75;95.83
82160;BME280;71734;50.876;7.372;2023-11-21T11:31:38;99053.75;;;8.69;95.77
82160;BME280;71734;50.876;7.372;2023-11-21T11:34:20;99052.94;;;8.67;95.91
82160;BME280;71734;50.876;7.372;2023-11-21T11:36:55;99056.75;;;8.57;95.12
82160;BME280;71734;50.876;7.372;2023-11-21T11:39:28;99053.16;;;8.60;95.66
82160;BME280;71734;50.876;7.372;2023-11-21T11:41:55;99064.66;;;8.57;95.87
82160;BME280;71734;50.876;7.372;2023-11-21T11:44:50;99059.25;;;8.62;96.04
82160;BME280;71734;50.876;7.372;2023-11-21T11:47:20;99050.44;;;8.63;96.12
82160;BME280;71734;50.876;7.372;2023-11-21T11:50:01;99059.91;;;8.70;96.31
82160;BME280;71734;50.876;7.372;2023-11-21T11:52:36;99062.44;;;8.73;95.19
82160;BME280;71734;50.876;7.372;2023-11-21T11:55:04;99066.84;;;8.74;95.69
82160;BME280;71734;50.876;7.372;2023-11-21T11:57:31;99067.59;;;8.77;95.50
82160;BME280;71734;50.876;7.372;2023-11-21T12:00:13;99058.88;;;8.75;95.39
82160;BME280;71734;50.876;7.372;2023-11-21T12:02:45;99060.59;;;8.76;95.52
82160;BME280;71734;50.876;7.372;2023-11-21T12:05:14;99063.97;;;8.81;95.92
82160;BME280;71734;50.876;7.372;2023-11-21T12:07:45;99068.22;;;8.87;94.60
82160;BME280;71734;50.876;7.372;2023-11-21T12:10:14;99062.06;;;8.86;95.14
82160;BME280;71734;50.876;7.372;2023-11-21T12:12:44;99061.78;;;8.96;95.74
82160;BME280;71734;50.876;7.372;2023-11-21T12:15:11;99059.78;;;9.04;94.95
82160;BME280;71734;50.876;7.372;2023-11-21T12:17:39;99060.19;;;9.19;95.23
82160;BME280;71734;50.876;7.372;2023-11-21T12:20:06;99068.75;;;9.27;94.65
82160;BME280;71734;50.876;7.372;2023-11-21T12:22:41;99074.66;;;9.36;94.36
82160;BME280;71734;50.876;7.372;2023-11-21T12:25:16;99068.47;;;9.37;95.20
82160;BME280;71734;50.876;7.372;2023-11-21T12:27:44;99067.63;;;9.34;93.83
82160;BME280;71734;50.876;7.372;2023-11-21T12:30:12;99076.44;;;9.35;93.66
82160;BME280;71734;50.876;7.372;2023-11-21T12:32:41;99074.56;;;9.39;94.10
82160;BME280;71734;50.876;7.372;2023-11-21T12:35:09;99084.47;;;9.32;93.44
82160;BME280;71734;50.876;7.372;2023-11-21T12:37:36;99080.28;;;9.25;92.68
82160;BME280;71734;50.876;7.372;2023-11-21T12:40:05;99086.09;;;9.08;93.19
82160;BME280;71734;50.876;7.372;2023-11-21T12:42:34;99085.09;;;9.12;94.39
82160;BME280;71734;50.876;7.372;2023-11-21T12:45:18;99079.06;;;9.07;94.11
82160;BME280;71734;50.876;7.372;2023-11-21T12:47:46;99090.44;;;9.09;93.94
82160;BME280;71734;50.876;7.372;2023-11-21T12:50:13;99084.88;;;9.18;93.51
82160;BME280;71734;50.876;7.372;2023-11-21T12:52:44;99080.91;;;9.61;92.01
82160;BME280;71734;50.876;7.372;2023-11-21T12:55:17;99089.66;;;9.63;91.12
82160;BME280;71734;50.876;7.372;2023-11-21T12:57:45;99081.97;;;9.55;91.57
82160;BME280;71734;50.876;7.372;2023-11-21T13:00:18;99094.22;;;9.58;91.34
82160;BME280;71734;50.876;7.372;2023-11-21T13:02:54;99090.47;;;9.65;91.20
82160;BME280;71734;50.876;7.372;2023-11-21T13:05:26;99088.84;;;9.61;91.23
82160;BME280;71734;50.876;7.372;2023-11-21T13:07:56;99081.16;;;9.53;90.44
82160;BME280;71734;50.876;7.372;2023-11-21T13:10:24;99082.22;;;9.48;91.62
82160;BME280;71734;50.876;7.372;2023-11-21T13:12:56;99084.19;;;9.41;92.30
82160;BME280;71734;50.876;7.372;2023-11-21T13:15:23;99087.03;;;9.33;93.04